sensor_id;sensor_type;location;lat;lon;timestamp;P1;durP1;ratioP1;P2;durP2;ratioP2
3663;SDS011;1848;51.042;7.066;2022-08-01T00:01:53;7.80;;;5.70;;
3663;SDS011;1848;51.042;7.066;2022-08-01T00:04:20;6.20;;;5.60;;
3663;SDS011;1848;51.042;7.066;2022-08-01T00:06:46;5.30;;;4.80;;
3663;SDS011;1848;51.042;7.066;2022-08-01T00:09:12;5.50;;;4.70;;
3663;SDS011;1848;51.042;7.066;2022-08-01T00:11:49;5.90;;;5.30;;
3663;SDS011;1848;51.042;7.066;2022-08-01T00:14:25;6.00;;;5.43;;
3663;SDS011;1848;51.042;7.066;2022-08-01T00:16:57;5.27;;;4.83;;
3663;SDS011;1848;51.042;7.066;2022-08-01T00:19:32;5.03;;;4.30;;
3663;SDS011;1848;51.042;7.066;2022-08-01T00:21:59;5.57;;;5.10;;
3663;SDS011;1848;51.042;7.066;2022-08-01T00:24:26;6.27;;;5.70;;
3663;SDS011;1848;51.042;7.066;2022-08-01T00:26:52;6.57;;;5.40;;
3663;SDS011;1848;51.042;7.066;2022-08-01T00:29:18;5.63;;;5.13;;
3663;SDS011;1848;51.042;7.066;2022-08-01T00:32:05;6.53;;;6.00;;
3663;SDS011;1848;51.042;7.066;2022-08-01T00:34:32;5.83;;;5.37;;
3663;SDS011;1848;51.042;7.066;2022-08-01T00:36:59;7.13;;;6.30;;
3663;SDS011;1848;51.042;7.066;2022-08-01T00:39:25;5.77;;;5.20;;
3663;SDS011;1848;51.042;7.066;2022-08-01T00:41:52;5.90;;;5.10;;
3663;SDS011;1848;51.042;7.066;2022-08-01T00:44:25;5.67;;;5.27;;
3663;SDS011;1848;51.042;7.066;2022-08-01T00:46:52;5.03;;;4.53;;
3663;SDS011;1848;51.042;7.066;2022-08-01T00:49:19;7.00;;;5.57;;
3663;SDS011;1848;51.042;7.066;2022-08-01T00:51:45;7.70;;;5.57;;
3663;SDS011;1848;51.042;7.066;2022-08-01T00:54:12;5.83;;;5.33;;
3663;SDS011;1848;51.042;7.066;2022-08-01T00:56:42;5.30;;;4.90;;
3663;SDS011;1848;51.042;7.066;2022-08-01T00:59:09;6.23;;;4.80;;
3663;SDS011;1848;51.042;7.066;2022-08-01T01:01:39;6.03;;;5.43;;
3663;SDS011;1848;51.042;7.066;2022-08-01T01:04:11;6.83;;;5.27;;
3663;SDS011;1848;51.042;7.066;2022-08-01T01:06:45;6.30;;;5.73;;
3663;SDS011;1848;51.042;7.066;2022-08-01T01:09:35;8.13;;;6.10;;
3663;SDS011;1848;51.042;7.066;2022-08-01T01:15:11;10.10;;;5.40;;
3663;SDS011;1848;51.042;7.066;2022-08-01T01:17:56;6.40;;;5.87;;
3663;SDS011;1848;51.042;7.066;2022-08-01T01:20:37;6.20;;;5.70;;
3663;SDS011;1848;51.042;7.066;2022-08-01T01:28:12;7.17;;;5.87;;
3663;SDS011;1848;51.042;7.066;2022-08-01T01:30:48;5.73;;;5.20;;
3663;SDS011;1848;51.042;7.066;2022-08-01T01:33:17;5.93;;;5.40;;
3663;SDS011;1848;51.042;7.066;2022-08-01T01:35:46;6.53;;;6.07;;
3663;SDS011;1848;51.042;7.066;2022-08-01T01:38:17;6.00;;;5.50;;
3663;SDS011;1848;51.042;7.066;2022-08-01T01:40:46;6.70;;;6.13;;
3663;SDS011;1848;51.042;7.066;2022-08-01T01:43:15;6.70;;;6.10;;
3663;SDS011;1848;51.042;7.066;2022-08-01T01:45:43;9.07;;;6.30;;
3663;SDS011;1848;51.042;7.066;2022-08-01T01:48:16;9.33;;;6.70;;
3663;SDS011;1848;51.042;7.066;2022-08-01T01:50:46;6.90;;;6.30;;
3663;SDS011;1848;51.042;7.066;2022-08-01T01:53:14;7.60;;;6.70;;
3663;SDS011;1848;51.042;7.066;2022-08-01T01:55:44;9.63;;;7.13;;
3663;SDS011;1848;51.042;7.066;2022-08-01T01:58:15;8.40;;;7.07;;
3663;SDS011;1848;51.042;7.066;2022-08-01T02:00:43;10.60;;;8.13;;
3663;SDS011;1848;51.042;7.066;2022-08-01T02:03:11;10.33;;;9.30;;
3663;SDS011;1848;51.042;7.066;2022-08-01T02:05:38;10.40;;;9.23;;
3663;SDS011;1848;51.042;7.066;2022-08-01T02:08:08;9.90;;;9.00;;
3663;SDS011;1848;51.042;7.066;2022-08-01T02:10:37;14.50;;;10.30;;
3663;SDS011;1848;51.042;7.066;2022-08-01T02:13:05;12.87;;;9.80;;
3663;SDS011;1848;51.042;7.066;2022-08-01T02:15:37;12.40;;;9.73;;
3663;SDS011;1848;51.042;7.066;2022-08-01T02:18:25;11.10;;;9.40;;
3663;SDS011;1848;51.042;7.066;2022-08-01T02:20:52;11.50;;;10.30;;
3663;SDS011;1848;51.042;7.066;2022-08-01T02:23:21;11.40;;;10.10;;
3663;SDS011;1848;51.042;7.066;2022-08-01T02:25:50;10.90;;;8.77;;
3663;SDS011;1848;51.042;7.066;2022-08-01T02:28:38;16.10;;;9.77;;
3663;SDS011;1848;51.042;7.066;2022-08-01T02:31:13;8.23;;;7.40;;
3663;SDS011;1848;51.042;7.066;2022-08-01T02:33:44;8.97;;;8.17;;
3663;SDS011;1848;51.042;7.066;2022-08-01T02:36:15;9.53;;;8.00;;
3663;SDS011;1848;51.042;7.066;2022-08-01T02:38:59;7.77;;;6.87;;
3663;SDS011;1848;51.042;7.066;2022-08-01T02:41:29;8.33;;;7.30;;
3663;SDS011;1848;51.042;7.066;2022-08-01T02:43:59;10.47;;;6.40;;
3663;SDS011;1848;51.042;7.066;2022-08-01T02:46:38;8.17;;;7.00;;
3663;SDS011;1848;51.042;7.066;2022-08-01T02:49:18;8.13;;;6.40;;
3663;SDS011;1848;51.042;7.066;2022-08-01T02:51:47;7.60;;;6.43;;
3663;SDS011;1848;51.042;7.066;2022-08-01T02:54:15;8.57;;;6.73;;
3663;SDS011;1848;51.042;7.066;2022-08-01T02:56:44;7.30;;;6.43;;
3663;SDS011;1848;51.042;7.066;2022-08-01T02:59:15;6.47;;;5.83;;
3663;SDS011;1848;51.042;7.066;2022-08-01T03:01:47;6.90;;;6.30;;
3663;SDS011;1848;51.042;7.066;2022-08-01T03:04:16;7.80;;;6.37;;
3663;SDS011;1848;51.042;7.066;2022-08-01T03:06:45;10.13;;;6.43;;
3663;SDS011;1848;51.042;7.066;2022-08-01T03:09:13;7.40;;;6.40;;
3663;SDS011;1848;51.042;7.066;2022-08-01T03:11:42;9.57;;;7.57;;
3663;SDS011;1848;51.042;7.066;2022-08-01T03:14:10;8.80;;;5.90;;
3663;SDS011;1848;51.042;7.066;2022-08-01T03:16:39;8.00;;;6.00;;
3663;SDS011;1848;51.042;7.066;2022-08-01T03:19:08;9.50;;;7.47;;
3663;SDS011;1848;51.042;7.066;2022-08-01T03:21:36;8.70;;;7.10;;
3663;SDS011;1848;51.042;7.066;2022-08-01T03:24:04;10.33;;;7.30;;
3663;SDS011;1848;51.042;7.066;2022-08-01T03:26:33;7.90;;;7.10;;
3663;SDS011;1848;51.042;7.066;2022-08-01T03:29:04;7.57;;;6.40;;
3663;SDS011;1848;51.042;7.066;2022-08-01T03:31:34;9.57;;;7.90;;
3663;SDS011;1848;51.042;7.066;2022-08-01T03:34:02;7.43;;;6.50;;
3663;SDS011;1848;51.042;7.066;2022-08-01T03:36:31;8.53;;;7.20;;
3663;SDS011;1848;51.042;7.066;2022-08-01T03:39:03;11.07;;;7.60;;
3663;SDS011;1848;51.042;7.066;2022-08-01T03:41:32;8.17;;;6.90;;
3663;SDS011;1848;51.042;7.066;2022-08-01T03:44:05;9.57;;;7.80;;
3663;SDS011;1848;51.042;7.066;2022-08-01T03:46:43;14.93;;;8.10;;
3663;SDS011;1848;51.042;7.066;2022-08-01T03:49:17;8.87;;;7.80;;
3663;SDS011;1848;51.042;7.066;2022-08-01T03:51:47;9.30;;;8.00;;
3663;SDS011;1848;51.042;7.066;2022-08-01T03:54:16;10.50;;;7.60;;
3663;SDS011;1848;51.042;7.066;2022-08-01T03:56:46;8.73;;;7.30;;
3663;SDS011;1848;51.042;7.066;2022-08-01T03:59:15;11.93;;;8.10;;
3663;SDS011;1848;51.042;7.066;2022-08-01T04:01:44;9.30;;;8.30;;
3663;SDS011;1848;51.042;7.066;2022-08-01T04:04:12;10.03;;;8.30;;
3663;SDS011;1848;51.042;7.066;2022-08-01T04:06:39;11.43;;;8.37;;
3663;SDS011;1848;51.042;7.066;2022-08-01T04:09:07;9.50;;;8.00;;
3663;SDS011;1848;51.042;7.066;2022-08-01T04:11:38;11.50;;;8.73;;
3663;SDS011;1848;51.042;7.066;2022-08-01T04:14:06;9.37;;;8.13;;
3663;SDS011;1848;51.042;7.066;2022-08-01T04:16:34;11.17;;;9.40;;
3663;SDS011;1848;51.042;7.066;2022-08-01T04:19:01;12.77;;;11.57;;
3663;SDS011;1848;51.042;7.066;2022-08-01T04:21:28;12.17;;;10.03;;
3663;SDS011;1848;51.042;7.066;2022-08-01T04:23:59;16.03;;;11.97;;
3663;SDS011;1848;51.042;7.066;2022-08-01T04:26:32;16.10;;;12.90;;
3663;SDS011;1848;51.042;7.066;2022-08-01T04:29:02;14.50;;;12.90;;
3663;SDS011;1848;51.042;7.066;2022-08-01T04:31:31;15.97;;;13.07;;
3663;SDS011;1848;51.042;7.066;2022-08-01T04:34:00;15.43;;;13.30;;
3663;SDS011;1848;51.042;7.066;2022-08-01T04:36:29;16.97;;;14.67;;
3663;SDS011;1848;51.042;7.066;2022-08-01T04:38:59;13.63;;;12.23;;
3663;SDS011;1848;51.042;7.066;2022-08-01T04:41:27;15.43;;;13.90;;
3663;SDS011;1848;51.042;7.066;2022-08-01T04:43:56;19.70;;;14.33;;
3663;SDS011;1848;51.042;7.066;2022-08-01T04:46:25;14.90;;;13.33;;
3663;SDS011;1848;51.042;7.066;2022-08-01T04:48:53;15.30;;;13.27;;
3663;SDS011;1848;51.042;7.066;2022-08-01T04:51:21;15.67;;;13.50;;
3663;SDS011;1848;51.042;7.066;2022-08-01T04:53:50;17.40;;;13.50;;
3663;SDS011;1848;51.042;7.066;2022-08-01T04:56:17;15.80;;;14.20;;
3663;SDS011;1848;51.042;7.066;2022-08-01T04:58:45;16.57;;;14.93;;
3663;SDS011;1848;51.042;7.066;2022-08-01T05:01:11;17.43;;;13.40;;
3663;SDS011;1848;51.042;7.066;2022-08-01T05:03:38;14.73;;;13.20;;
3663;SDS011;1848;51.042;7.066;2022-08-01T05:06:05;14.67;;;13.27;;
3663;SDS011;1848;51.042;7.066;2022-08-01T05:08:31;14.70;;;13.30;;
3663;SDS011;1848;51.042;7.066;2022-08-01T05:10:58;17.80;;;15.40;;
3663;SDS011;1848;51.042;7.066;2022-08-01T05:13:24;15.20;;;13.80;;
3663;SDS011;1848;51.042;7.066;2022-08-01T05:15:51;21.33;;;13.83;;
3663;SDS011;1848;51.042;7.066;2022-08-01T05:18:18;19.87;;;14.63;;
3663;SDS011;1848;51.042;7.066;2022-08-01T05:20:53;15.23;;;13.03;;
3663;SDS011;1848;51.042;7.066;2022-08-01T05:23:20;20.50;;;15.30;;
3663;SDS011;1848;51.042;7.066;2022-08-01T05:26:06;18.67;;;14.60;;
3663;SDS011;1848;51.042;7.066;2022-08-01T05:28:34;17.00;;;14.93;;
3663;SDS011;1848;51.042;7.066;2022-08-01T05:31:01;21.50;;;14.63;;
3663;SDS011;1848;51.042;7.066;2022-08-01T05:33:27;17.00;;;15.30;;
3663;SDS011;1848;51.042;7.066;2022-08-01T05:35:54;17.13;;;15.33;;
3663;SDS011;1848;51.042;7.066;2022-08-01T05:38:20;19.93;;;14.47;;
3663;SDS011;1848;51.042;7.066;2022-08-01T05:40:46;18.63;;;15.20;;
3663;SDS011;1848;51.042;7.066;2022-08-01T05:43:13;19.17;;;15.37;;
3663;SDS011;1848;51.042;7.066;2022-08-01T05:45:39;20.17;;;15.43;;
3663;SDS011;1848;51.042;7.066;2022-08-01T05:48:07;16.17;;;14.33;;
3663;SDS011;1848;51.042;7.066;2022-08-01T05:50:34;16.03;;;14.47;;
3663;SDS011;1848;51.042;7.066;2022-08-01T05:53:00;21.63;;;15.13;;
3663;SDS011;1848;51.042;7.066;2022-08-01T05:55:27;18.40;;;14.77;;
3663;SDS011;1848;51.042;7.066;2022-08-01T05:57:53;19.23;;;14.73;;
3663;SDS011;1848;51.042;7.066;2022-08-01T06:00:20;24.33;;;16.37;;
3663;SDS011;1848;51.042;7.066;2022-08-01T06:02:46;18.13;;;16.20;;
3663;SDS011;1848;51.042;7.066;2022-08-01T06:05:13;21.67;;;15.93;;
3663;SDS011;1848;51.042;7.066;2022-08-01T06:07:39;17.60;;;15.90;;
3663;SDS011;1848;51.042;7.066;2022-08-01T06:10:06;18.70;;;16.20;;
3663;SDS011;1848;51.042;7.066;2022-08-01T06:12:34;17.63;;;14.73;;
3663;SDS011;1848;51.042;7.066;2022-08-01T06:15:01;18.20;;;16.07;;
3663;SDS011;1848;51.042;7.066;2022-08-01T06:17:28;20.20;;;14.80;;
3663;SDS011;1848;51.042;7.066;2022-08-01T06:19:55;17.53;;;15.73;;
3663;SDS011;1848;51.042;7.066;2022-08-01T06:22:22;19.07;;;16.50;;
3663;SDS011;1848;51.042;7.066;2022-08-01T06:24:48;17.77;;;15.10;;
3663;SDS011;1848;51.042;7.066;2022-08-01T06:27:15;20.20;;;15.80;;
3663;SDS011;1848;51.042;7.066;2022-08-01T06:29:47;17.13;;;15.33;;
3663;SDS011;1848;51.042;7.066;2022-08-01T06:32:19;19.80;;;15.27;;
3663;SDS011;1848;51.042;7.066;2022-08-01T06:34:52;18.43;;;16.50;;
3663;SDS011;1848;51.042;7.066;2022-08-01T06:37:18;18.17;;;14.80;;
3663;SDS011;1848;51.042;7.066;2022-08-01T06:39:45;18.70;;;15.43;;
3663;SDS011;1848;51.042;7.066;2022-08-01T06:42:11;20.90;;;16.60;;
3663;SDS011;1848;51.042;7.066;2022-08-01T06:44:38;18.90;;;15.03;;
3663;SDS011;1848;51.042;7.066;2022-08-01T06:47:04;18.80;;;15.83;;
3663;SDS011;1848;51.042;7.066;2022-08-01T06:49:31;18.33;;;16.43;;
3663;SDS011;1848;51.042;7.066;2022-08-01T06:51:58;16.50;;;14.70;;
3663;SDS011;1848;51.042;7.066;2022-08-01T06:54:24;18.93;;;15.27;;
3663;SDS011;1848;51.042;7.066;2022-08-01T06:56:51;16.70;;;15.10;;
3663;SDS011;1848;51.042;7.066;2022-08-01T06:59:17;19.67;;;16.47;;
3663;SDS011;1848;51.042;7.066;2022-08-01T07:01:43;15.87;;;14.20;;
3663;SDS011;1848;51.042;7.066;2022-08-01T07:04:10;14.63;;;13.13;;
3663;SDS011;1848;51.042;7.066;2022-08-01T07:06:36;16.33;;;14.63;;
3663;SDS011;1848;51.042;7.066;2022-08-01T07:09:02;17.00;;;15.20;;
3663;SDS011;1848;51.042;7.066;2022-08-01T07:11:38;20.00;;;15.00;;
3663;SDS011;1848;51.042;7.066;2022-08-01T07:14:05;17.00;;;14.50;;
3663;SDS011;1848;51.042;7.066;2022-08-01T07:16:31;16.10;;;14.60;;
3663;SDS011;1848;51.042;7.066;2022-08-01T07:18:58;17.03;;;15.23;;
3663;SDS011;1848;51.042;7.066;2022-08-01T07:21:24;17.93;;;14.50;;
3663;SDS011;1848;51.042;7.066;2022-08-01T07:24:06;16.00;;;14.30;;
3663;SDS011;1848;51.042;7.066;2022-08-01T07:26:43;15.17;;;13.67;;
3663;SDS011;1848;51.042;7.066;2022-08-01T07:29:20;15.53;;;14.13;;
3663;SDS011;1848;51.042;7.066;2022-08-01T07:31:47;15.13;;;13.63;;
3663;SDS011;1848;51.042;7.066;2022-08-01T07:34:13;15.70;;;14.00;;
3663;SDS011;1848;51.042;7.066;2022-08-01T07:36:40;16.70;;;15.17;;
3663;SDS011;1848;51.042;7.066;2022-08-01T07:39:06;16.07;;;14.57;;
3663;SDS011;1848;51.042;7.066;2022-08-01T07:41:33;15.90;;;13.90;;
3663;SDS011;1848;51.042;7.066;2022-08-01T07:44:20;15.30;;;13.70;;
3663;SDS011;1848;51.042;7.066;2022-08-01T07:46:47;14.80;;;13.33;;
3663;SDS011;1848;51.042;7.066;2022-08-01T07:49:13;17.47;;;15.07;;
3663;SDS011;1848;51.042;7.066;2022-08-01T07:51:40;16.00;;;14.47;;
3663;SDS011;1848;51.042;7.066;2022-08-01T07:54:06;15.93;;;14.30;;
3663;SDS011;1848;51.042;7.066;2022-08-01T07:56:33;15.40;;;14.00;;
3663;SDS011;1848;51.042;7.066;2022-08-01T07:59:00;15.77;;;14.07;;
3663;SDS011;1848;51.042;7.066;2022-08-01T08:01:26;14.70;;;13.27;;
3663;SDS011;1848;51.042;7.066;2022-08-01T08:03:53;16.10;;;14.63;;
3663;SDS011;1848;51.042;7.066;2022-08-01T08:06:20;16.33;;;14.67;;
3663;SDS011;1848;51.042;7.066;2022-08-01T08:08:46;16.07;;;14.37;;
3663;SDS011;1848;51.042;7.066;2022-08-01T08:11:12;17.83;;;14.17;;
3663;SDS011;1848;51.042;7.066;2022-08-01T08:13:39;16.93;;;14.70;;
3663;SDS011;1848;51.042;7.066;2022-08-01T08:16:05;15.20;;;13.60;;
3663;SDS011;1848;51.042;7.066;2022-08-01T08:18:32;13.60;;;12.20;;
3663;SDS011;1848;51.042;7.066;2022-08-01T08:20:58;14.67;;;13.33;;
3663;SDS011;1848;51.042;7.066;2022-08-01T08:23:31;12.43;;;11.20;;
3663;SDS011;1848;51.042;7.066;2022-08-01T08:26:16;10.83;;;9.90;;
3663;SDS011;1848;51.042;7.066;2022-08-01T08:28:42;11.87;;;10.80;;
3663;SDS011;1848;51.042;7.066;2022-08-01T08:31:08;12.60;;;9.73;;
3663;SDS011;1848;51.042;7.066;2022-08-01T08:33:55;10.47;;;9.57;;
3663;SDS011;1848;51.042;7.066;2022-08-01T08:36:21;10.00;;;9.17;;
3663;SDS011;1848;51.042;7.066;2022-08-01T08:38:56;8.87;;;8.07;;
3663;SDS011;1848;51.042;7.066;2022-08-01T08:41:26;10.33;;;9.53;;
3663;SDS011;1848;51.042;7.066;2022-08-01T08:44:03;11.47;;;10.47;;
3663;SDS011;1848;51.042;7.066;2022-08-01T08:46:42;10.97;;;9.87;;
3663;SDS011;1848;51.042;7.066;2022-08-01T08:49:11;9.30;;;8.50;;
3663;SDS011;1848;51.042;7.066;2022-08-01T08:51:41;9.07;;;8.23;;
3663;SDS011;1848;51.042;7.066;2022-08-01T08:54:10;7.37;;;6.53;;
3663;SDS011;1848;51.042;7.066;2022-08-01T08:56:38;8.23;;;7.13;;
3663;SDS011;1848;51.042;7.066;2022-08-01T08:59:06;9.87;;;8.97;;
3663;SDS011;1848;51.042;7.066;2022-08-01T09:01:32;11.07;;;9.30;;
3663;SDS011;1848;51.042;7.066;2022-08-01T09:04:01;9.53;;;8.73;;
3663;SDS011;1848;51.042;7.066;2022-08-01T09:06:29;8.13;;;7.43;;
3663;SDS011;1848;51.042;7.066;2022-08-01T09:08:57;8.20;;;7.40;;
3663;SDS011;1848;51.042;7.066;2022-08-01T09:11:24;10.23;;;8.03;;
3663;SDS011;1848;51.042;7.066;2022-08-01T09:14:10;7.87;;;6.67;;
3663;SDS011;1848;51.042;7.066;2022-08-01T09:16:42;8.80;;;7.93;;
3663;SDS011;1848;51.042;7.066;2022-08-01T09:19:15;9.00;;;8.10;;
3663;SDS011;1848;51.042;7.066;2022-08-01T09:22:04;9.33;;;8.43;;
3663;SDS011;1848;51.042;7.066;2022-08-01T09:24:34;6.43;;;5.90;;
3663;SDS011;1848;51.042;7.066;2022-08-01T09:27:01;5.63;;;5.13;;
3663;SDS011;1848;51.042;7.066;2022-08-01T09:29:44;6.03;;;5.50;;
3663;SDS011;1848;51.042;7.066;2022-08-01T09:32:26;6.93;;;6.23;;
3663;SDS011;1848;51.042;7.066;2022-08-01T09:40:57;5.80;;;5.30;;
3663;SDS011;1848;51.042;7.066;2022-08-01T09:43:27;7.57;;;6.40;;
3663;SDS011;1848;51.042;7.066;2022-08-01T09:45:56;6.70;;;5.70;;
3663;SDS011;1848;51.042;7.066;2022-08-01T09:48:23;7.43;;;6.20;;
3663;SDS011;1848;51.042;7.066;2022-08-01T09:50:55;6.37;;;5.40;;
3663;SDS011;1848;51.042;7.066;2022-08-01T09:53:40;6.30;;;5.80;;
3663;SDS011;1848;51.042;7.066;2022-08-01T09:56:16;6.50;;;5.90;;
3663;SDS011;1848;51.042;7.066;2022-08-01T09:58:50;7.17;;;6.43;;
3663;SDS011;1848;51.042;7.066;2022-08-01T10:01:24;7.80;;;6.80;;
3663;SDS011;1848;51.042;7.066;2022-08-01T10:06:51;6.10;;;5.60;;
3663;SDS011;1848;51.042;7.066;2022-08-01T10:09:30;6.20;;;5.60;;
3663;SDS011;1848;51.042;7.066;2022-08-01T10:12:05;7.40;;;6.30;;
3663;SDS011;1848;51.042;7.066;2022-08-01T10:14:34;6.33;;;5.70;;
3663;SDS011;1848;51.042;7.066;2022-08-01T10:17:02;6.27;;;5.67;;
3663;SDS011;1848;51.042;7.066;2022-08-01T10:19:34;6.33;;;5.20;;
3663;SDS011;1848;51.042;7.066;2022-08-01T10:22:02;6.07;;;5.43;;
3663;SDS011;1848;51.042;7.066;2022-08-01T10:24:35;6.43;;;5.93;;
3663;SDS011;1848;51.042;7.066;2022-08-01T10:27:06;6.40;;;5.80;;
3663;SDS011;1848;51.042;7.066;2022-08-01T10:29:40;6.60;;;6.00;;
3663;SDS011;1848;51.042;7.066;2022-08-01T10:32:24;7.50;;;6.80;;
3663;SDS011;1848;51.042;7.066;2022-08-01T10:34:53;9.50;;;6.73;;
3663;SDS011;1848;51.042;7.066;2022-08-01T10:37:21;8.07;;;7.27;;
3663;SDS011;1848;51.042;7.066;2022-08-01T10:39:47;9.50;;;6.80;;
3663;SDS011;1848;51.042;7.066;2022-08-01T10:42:36;6.67;;;5.57;;
3663;SDS011;1848;51.042;7.066;2022-08-01T10:45:05;5.97;;;5.47;;
3663;SDS011;1848;51.042;7.066;2022-08-01T10:47:37;6.20;;;5.30;;
3663;SDS011;1848;51.042;7.066;2022-08-01T10:50:21;6.53;;;5.10;;
3663;SDS011;1848;51.042;7.066;2022-08-01T10:53:03;5.43;;;4.90;;
3663;SDS011;1848;51.042;7.066;2022-08-01T10:56:07;5.53;;;5.03;;
3663;SDS011;1848;51.042;7.066;2022-08-01T10:58:41;5.10;;;4.70;;
3663;SDS011;1848;51.042;7.066;2022-08-01T11:09:01;5.83;;;5.27;;
3663;SDS011;1848;51.042;7.066;2022-08-01T11:11:31;6.00;;;5.50;;
3663;SDS011;1848;51.042;7.066;2022-08-01T11:14:03;5.43;;;4.93;;
3663;SDS011;1848;51.042;7.066;2022-08-01T11:16:36;5.27;;;4.77;;
3663;SDS011;1848;51.042;7.066;2022-08-01T11:19:05;6.00;;;4.57;;
3663;SDS011;1848;51.042;7.066;2022-08-01T11:27:26;6.53;;;4.73;;
3663;SDS011;1848;51.042;7.066;2022-08-01T11:32:48;5.10;;;4.70;;
3663;SDS011;1848;51.042;7.066;2022-08-01T11:35:37;5.50;;;5.10;;
3663;SDS011;1848;51.042;7.066;2022-08-01T11:38:39;4.93;;;4.43;;
3663;SDS011;1848;51.042;7.066;2022-08-01T11:52:15;5.60;;;5.20;;
3663;SDS011;1848;51.042;7.066;2022-08-01T11:55:28;5.30;;;4.90;;
3663;SDS011;1848;51.042;7.066;2022-08-01T11:57:35;5.20;;;4.70;;
3663;SDS011;1848;51.042;7.066;2022-08-01T12:02:43;4.97;;;4.57;;
3663;SDS011;1848;51.042;7.066;2022-08-01T12:05:12;11.13;;;3.43;;
3663;SDS011;1848;51.042;7.066;2022-08-01T12:07:43;4.17;;;3.53;;
3663;SDS011;1848;51.042;7.066;2022-08-01T12:10:14;4.07;;;3.77;;
3663;SDS011;1848;51.042;7.066;2022-08-01T12:12:43;3.80;;;3.50;;
3663;SDS011;1848;51.042;7.066;2022-08-01T12:15:11;4.20;;;3.80;;
3663;SDS011;1848;51.042;7.066;2022-08-01T12:17:39;4.00;;;3.60;;
3663;SDS011;1848;51.042;7.066;2022-08-01T12:20:24;3.50;;;3.10;;
3663;SDS011;1848;51.042;7.066;2022-08-01T12:22:57;3.77;;;3.37;;
3663;SDS011;1848;51.042;7.066;2022-08-01T12:25:25;5.60;;;3.60;;
3663;SDS011;1848;51.042;7.066;2022-08-01T12:27:51;3.93;;;3.63;;
3663;SDS011;1848;51.042;7.066;2022-08-01T12:30:22;6.67;;;3.80;;
3663;SDS011;1848;51.042;7.066;2022-08-01T12:32:50;4.33;;;3.87;;
3663;SDS011;1848;51.042;7.066;2022-08-01T12:35:22;3.90;;;3.60;;
3663;SDS011;1848;51.042;7.066;2022-08-01T12:37:52;3.50;;;3.20;;
3663;SDS011;1848;51.042;7.066;2022-08-01T12:42:57;3.77;;;3.47;;
3663;SDS011;1848;51.042;7.066;2022-08-01T12:45:28;3.37;;;3.17;;
3663;SDS011;1848;51.042;7.066;2022-08-01T12:47:59;3.33;;;3.13;;
3663;SDS011;1848;51.042;7.066;2022-08-01T12:50:27;3.53;;;3.23;;
3663;SDS011;1848;51.042;7.066;2022-08-01T12:52:57;3.20;;;3.00;;
3663;SDS011;1848;51.042;7.066;2022-08-01T12:55:24;3.50;;;3.20;;
3663;SDS011;1848;51.042;7.066;2022-08-01T12:58:09;3.20;;;2.77;;
3663;SDS011;1848;51.042;7.066;2022-08-01T13:00:41;3.20;;;2.83;;
3663;SDS011;1848;51.042;7.066;2022-08-01T13:03:11;3.50;;;3.30;;
3663;SDS011;1848;51.042;7.066;2022-08-01T13:05:44;3.20;;;3.00;;
3663;SDS011;1848;51.042;7.066;2022-08-01T13:08:16;2.97;;;2.73;;
3663;SDS011;1848;51.042;7.066;2022-08-01T13:10:44;2.80;;;2.60;;
3663;SDS011;1848;51.042;7.066;2022-08-01T13:13:12;2.93;;;2.63;;
3663;SDS011;1848;51.042;7.066;2022-08-01T13:16:02;3.37;;;2.90;;
3663;SDS011;1848;51.042;7.066;2022-08-01T13:18:32;5.43;;;3.17;;
3663;SDS011;1848;51.042;7.066;2022-08-01T13:21:09;2.90;;;2.70;;
3663;SDS011;1848;51.042;7.066;2022-08-01T13:23:41;2.90;;;2.70;;
3663;SDS011;1848;51.042;7.066;2022-08-01T13:29:09;2.90;;;2.70;;
3663;SDS011;1848;51.042;7.066;2022-08-01T13:31:37;8.60;;;3.20;;
3663;SDS011;1848;51.042;7.066;2022-08-01T13:34:04;3.27;;;2.97;;
3663;SDS011;1848;51.042;7.066;2022-08-01T13:36:31;3.67;;;3.37;;
3663;SDS011;1848;51.042;7.066;2022-08-01T13:38:58;5.50;;;3.30;;
3663;SDS011;1848;51.042;7.066;2022-08-01T13:41:45;3.27;;;3.07;;
3663;SDS011;1848;51.042;7.066;2022-08-01T13:44:12;3.17;;;2.87;;
3663;SDS011;1848;51.042;7.066;2022-08-01T13:46:39;4.00;;;3.10;;
3663;SDS011;1848;51.042;7.066;2022-08-01T13:49:16;3.77;;;2.77;;
3663;SDS011;1848;51.042;7.066;2022-08-01T13:51:44;2.93;;;2.73;;
3663;SDS011;1848;51.042;7.066;2022-08-01T13:54:11;4.00;;;3.23;;
3663;SDS011;1848;51.042;7.066;2022-08-01T13:56:38;3.60;;;3.37;;
3663;SDS011;1848;51.042;7.066;2022-08-01T13:59:04;3.40;;;3.10;;
3663;SDS011;1848;51.042;7.066;2022-08-01T14:01:32;3.40;;;2.90;;
3663;SDS011;1848;51.042;7.066;2022-08-01T14:04:00;2.93;;;2.73;;
3663;SDS011;1848;51.042;7.066;2022-08-01T14:06:28;3.13;;;2.93;;
3663;SDS011;1848;51.042;7.066;2022-08-01T14:08:56;2.90;;;2.70;;
3663;SDS011;1848;51.042;7.066;2022-08-01T14:11:22;2.83;;;2.63;;
3663;SDS011;1848;51.042;7.066;2022-08-01T14:13:49;3.00;;;2.70;;
3663;SDS011;1848;51.042;7.066;2022-08-01T14:16:16;3.20;;;2.80;;
3663;SDS011;1848;51.042;7.066;2022-08-01T14:18:43;3.43;;;2.57;;
3663;SDS011;1848;51.042;7.066;2022-08-01T14:21:09;3.47;;;3.17;;
3663;SDS011;1848;51.042;7.066;2022-08-01T14:23:36;4.27;;;2.80;;
3663;SDS011;1848;51.042;7.066;2022-08-01T14:26:02;2.60;;;2.50;;
3663;SDS011;1848;51.042;7.066;2022-08-01T14:28:37;3.07;;;2.77;;
3663;SDS011;1848;51.042;7.066;2022-08-01T14:31:04;4.07;;;3.17;;
3663;SDS011;1848;51.042;7.066;2022-08-01T14:33:32;3.83;;;3.53;;
3663;SDS011;1848;51.042;7.066;2022-08-01T14:35:59;3.83;;;3.33;;
3663;SDS011;1848;51.042;7.066;2022-08-01T14:38:46;4.07;;;3.77;;
3663;SDS011;1848;51.042;7.066;2022-08-01T14:41:13;5.00;;;3.40;;
3663;SDS011;1848;51.042;7.066;2022-08-01T14:43:41;3.90;;;3.70;;
3663;SDS011;1848;51.042;7.066;2022-08-01T14:46:07;4.33;;;3.17;;
3663;SDS011;1848;51.042;7.066;2022-08-01T14:48:35;3.33;;;3.03;;
3663;SDS011;1848;51.042;7.066;2022-08-01T14:51:02;2.93;;;2.83;;
3663;SDS011;1848;51.042;7.066;2022-08-01T14:53:29;4.00;;;3.20;;
3663;SDS011;1848;51.042;7.066;2022-08-01T14:55:56;2.80;;;2.60;;
3663;SDS011;1848;51.042;7.066;2022-08-01T14:58:22;2.90;;;2.70;;
3663;SDS011;1848;51.042;7.066;2022-08-01T15:00:49;3.83;;;3.00;;
3663;SDS011;1848;51.042;7.066;2022-08-01T15:03:21;2.73;;;2.53;;
3663;SDS011;1848;51.042;7.066;2022-08-01T15:05:48;3.20;;;3.00;;
3663;SDS011;1848;51.042;7.066;2022-08-01T15:08:14;4.07;;;3.67;;
3663;SDS011;1848;51.042;7.066;2022-08-01T15:10:41;3.43;;;3.23;;
3663;SDS011;1848;51.042;7.066;2022-08-01T15:13:07;3.33;;;3.03;;
3663;SDS011;1848;51.042;7.066;2022-08-01T15:15:33;3.50;;;3.30;;
3663;SDS011;1848;51.042;7.066;2022-08-01T15:18:00;3.93;;;3.63;;
3663;SDS011;1848;51.042;7.066;2022-08-01T15:20:26;6.10;;;3.50;;
3663;SDS011;1848;51.042;7.066;2022-08-01T15:22:53;3.63;;;3.33;;
3663;SDS011;1848;51.042;7.066;2022-08-01T15:25:20;4.00;;;3.60;;
3663;SDS011;1848;51.042;7.066;2022-08-01T15:27:47;3.97;;;3.70;;
3663;SDS011;1848;51.042;7.066;2022-08-01T15:30:14;3.83;;;3.53;;
3663;SDS011;1848;51.042;7.066;2022-08-01T15:32:41;4.07;;;3.77;;
3663;SDS011;1848;51.042;7.066;2022-08-01T15:35:07;3.73;;;3.43;;
3663;SDS011;1848;51.042;7.066;2022-08-01T15:37:36;4.07;;;3.70;;
3663;SDS011;1848;51.042;7.066;2022-08-01T15:40:08;4.43;;;3.97;;
3663;SDS011;1848;51.042;7.066;2022-08-01T15:42:35;3.70;;;3.50;;
3663;SDS011;1848;51.042;7.066;2022-08-01T15:45:02;4.00;;;3.70;;
3663;SDS011;1848;51.042;7.066;2022-08-01T15:47:30;3.97;;;3.67;;
3663;SDS011;1848;51.042;7.066;2022-08-01T15:49:56;3.70;;;3.50;;
3663;SDS011;1848;51.042;7.066;2022-08-01T15:52:25;4.30;;;4.00;;
3663;SDS011;1848;51.042;7.066;2022-08-01T15:54:57;4.73;;;3.57;;
3663;SDS011;1848;51.042;7.066;2022-08-01T15:57:24;4.23;;;3.83;;
3663;SDS011;1848;51.042;7.066;2022-08-01T15:59:50;5.00;;;4.60;;
3663;SDS011;1848;51.042;7.066;2022-08-01T16:02:17;4.70;;;4.40;;
3663;SDS011;1848;51.042;7.066;2022-08-01T16:04:43;4.80;;;3.63;;
3663;SDS011;1848;51.042;7.066;2022-08-01T16:07:10;3.87;;;3.67;;
3663;SDS011;1848;51.042;7.066;2022-08-01T16:09:37;4.23;;;3.93;;
3663;SDS011;1848;51.042;7.066;2022-08-01T16:12:03;4.60;;;4.20;;
3663;SDS011;1848;51.042;7.066;2022-08-01T16:14:30;4.70;;;4.40;;
3663;SDS011;1848;51.042;7.066;2022-08-01T16:16:57;4.10;;;3.77;;